createdAt,value
2023-09-20T00:02:14.024Z,100227.78
2023-09-20T00:04:43.466Z,100226.53
2023-09-20T00:07:11.056Z,100232.00
2023-09-20T00:09:39.800Z,100233.13
2023-09-20T00:12:08.137Z,100230.38
2023-09-20T00:14:35.739Z,100235.16
2023-09-20T00:17:03.229Z,100237.91
2023-09-20T00:19:30.615Z,100239.28
2023-09-20T00:21:57.952Z,100234.28
2023-09-20T00:24:25.323Z,100240.09
2023-09-20T00:26:52.663Z,100238.09
2023-09-20T00:29:20.086Z,100234.19
2023-09-20T00:31:47.524Z,100235.00
2023-09-20T00:34:14.976Z,100247.16
2023-09-20T00:36:42.287Z,100240.16
2023-09-20T00:39:11.482Z,100243.59
2023-09-20T00:41:38.838Z,100246.53
2023-09-20T00:44:06.414Z,100240.25
2023-09-20T00:46:33.839Z,100237.84
2023-09-20T00:49:01.598Z,100246.34
2023-09-20T00:51:29.117Z,100246.34
2023-09-20T00:54:04.469Z,100252.94
2023-09-20T00:56:33.012Z,100237.69
2023-09-20T00:59:05.995Z,100254.88
2023-09-20T01:01:35.132Z,100244.94
2023-09-20T01:04:03.976Z,100250.91
2023-09-20T01:06:31.494Z,100255.91
2023-09-20T01:08:59.337Z,100251.50
2023-09-20T01:11:26.695Z,100255.47
2023-09-20T01:13:54.200Z,100255.53
2023-09-20T01:16:21.718Z,100246.84
2023-09-20T01:18:49.535Z,100256.94
2023-09-20T01:21:16.993Z,100252.22
2023-09-20T01:23:44.648Z,100250.59
2023-09-20T01:26:15.286Z,100247.50
2023-09-20T01:28:43.065Z,100253.75
2023-09-20T01:31:11.944Z,100245.97
2023-09-20T01:33:39.494Z,100258.38
2023-09-20T01:36:07.691Z,100251.34
2023-09-20T01:38:36.024Z,100252.50
2023-09-20T01:41:04.951Z,100259.13
2023-09-20T01:43:32.609Z,100256.03
2023-09-20T01:46:00.159Z,100262.38
2023-09-20T01:48:28.787Z,100263.94
2023-09-20T01:50:56.318Z,100266.19
2023-09-20T01:53:25.892Z,100268.03
2023-09-20T01:55:53.617Z,100265.31
2023-09-20T01:58:21.021Z,100270.72
2023-09-20T02:00:52.369Z,100272.00
2023-09-20T02:03:20.578Z,100270.31
2023-09-20T02:05:49.767Z,100274.16
2023-09-20T02:08:18.136Z,100273.41
2023-09-20T02:10:46.304Z,100281.91
2023-09-20T02:13:16.516Z,100283.41
2023-09-20T02:15:45.287Z,100273.03
2023-09-20T02:18:13.370Z,100273.75
2023-09-20T02:20:41.614Z,100277.22
2023-09-20T02:23:14.203Z,100274.06
2023-09-20T02:25:57.239Z,100274.75
2023-09-20T02:28:24.697Z,100268.31
2023-09-20T02:30:52.589Z,100270.72
2023-09-20T02:33:20.641Z,100272.59
2023-09-20T02:35:47.954Z,100264.91
2023-09-20T02:38:15.343Z,100272.59
2023-09-20T02:40:42.806Z,100268.56
2023-09-20T02:43:10.773Z,100279.03
2023-09-20T02:45:41.223Z,100272.84
2023-09-20T02:48:09.550Z,100277.97
2023-09-20T02:50:37.741Z,100281.19
2023-09-20T02:53:07.142Z,100277.63
2023-09-20T02:55:35.093Z,100283.56
2023-09-20T02:58:02.643Z,100278.13
2023-09-20T03:00:33.313Z,100275.00
2023-09-20T03:03:02.821Z,100274.28
2023-09-20T03:05:32.317Z,100280.56
2023-09-20T03:08:03.383Z,100284.44
2023-09-20T03:10:31.149Z,100284.44
2023-09-20T03:12:59.345Z,100279.00
2023-09-20T03:15:29.846Z,100282.03
2023-09-20T03:18:05.077Z,100299.31
2023-09-20T03:20:35.889Z,100291.16
2023-09-20T03:23:06.477Z,100285.22
2023-09-20T03:25:39.303Z,100288.69
2023-09-20T03:28:15.245Z,100287.81
2023-09-20T03:30:42.758Z,100283.06
2023-09-20T03:33:10.452Z,100285.31
2023-09-20T03:35:39.292Z,100282.84
2023-09-20T03:38:07.196Z,100285.56
2023-09-20T03:40:34.868Z,100278.94
2023-09-20T03:43:04.726Z,100266.69
2023-09-20T03:45:33.276Z,100276.00
2023-09-20T03:48:02.847Z,100265.13
2023-09-20T03:50:31.007Z,100265.97
2023-09-20T03:53:01.324Z,100262.50
2023-09-20T03:55:29.090Z,100267.97
2023-09-20T03:57:57.347Z,100267.97
2023-09-20T04:00:30.027Z,100275.69
2023-09-20T04:03:00.229Z,100276.84
2023-09-20T04:05:43.962Z,100275.34
2023-09-20T04:08:12.961Z,100278.50
2023-09-20T04:10:42.266Z,100273.41
2023-09-20T04:13:10.370Z,100277.28
2023-09-20T04:15:42.252Z,100273.22
2023-09-20T04:18:10.793Z,100281.00
2023-09-20T04:20:39.950Z,100280.16
2023-09-20T04:23:08.423Z,100289.47
2023-09-20T04:25:35.951Z,100296.34
2023-09-20T04:28:03.513Z,100294.78
2023-09-20T04:30:32.428Z,100297.19
2023-09-20T04:33:00.681Z,100302.47
2023-09-20T04:35:35.163Z,100304.34
2023-09-20T04:38:05.336Z,100303.69
2023-09-20T04:40:33.289Z,100313.25
2023-09-20T04:43:00.595Z,100302.28
2023-09-20T04:45:29.640Z,100301.63
2023-09-20T04:47:58.452Z,100312.63
2023-09-20T04:50:26.788Z,100309.09
2023-09-20T04:52:55.334Z,100320.03
2023-09-20T04:55:22.661Z,100310.03
2023-09-20T04:57:50.169Z,100327.31
2023-09-20T05:00:21.992Z,100321.59
2023-09-20T05:02:49.427Z,100323.16
2023-09-20T05:05:17.702Z,100323.53
2023-09-20T05:07:46.090Z,100328.91
2023-09-20T05:10:13.538Z,100331.09
2023-09-20T05:12:42.452Z,100330.78
2023-09-20T05:15:14.246Z,100327.72
2023-09-20T05:17:44.567Z,100314.56
2023-09-20T05:20:15.162Z,100329.53
2023-09-20T05:22:42.643Z,100328.91
2023-09-20T05:25:11.285Z,100339.81
2023-09-20T05:27:38.883Z,100330.81
2023-09-20T05:30:06.986Z,100329.09
2023-09-20T05:32:34.538Z,100328.00
2023-09-20T05:35:01.945Z,100340.88
2023-09-20T05:37:29.420Z,100342.81
2023-09-20T05:39:56.782Z,100337.16
2023-09-20T05:42:24.489Z,100342.25
2023-09-20T05:44:51.812Z,100350.22
2023-09-20T05:47:19.202Z,100345.91
2023-09-20T05:49:46.583Z,100344.81
2023-09-20T05:52:14.040Z,100343.25
2023-09-20T05:54:44.461Z,100341.38
2023-09-20T05:57:14.036Z,100337.47
2023-09-20T05:59:41.416Z,100343.91
2023-09-20T06:02:08.854Z,100353.25
2023-09-20T06:04:37.303Z,100348.00
2023-09-20T06:07:06.865Z,100346.63
2023-09-20T06:09:34.244Z,100348.44
2023-09-20T06:12:05.564Z,100352.19
2023-09-20T06:14:32.931Z,100349.53
2023-09-20T06:17:01.508Z,100350.13
2023-09-20T06:19:31.823Z,100362.13
2023-09-20T06:21:59.303Z,100362.88
2023-09-20T06:24:26.627Z,100357.72
2023-09-20T06:26:54.324Z,100370.63
2023-09-20T06:29:22.514Z,100374.59
2023-09-20T06:31:49.851Z,100376.22
2023-09-20T06:34:18.897Z,100370.75
2023-09-20T06:36:46.358Z,100372.59
2023-09-20T06:39:14.921Z,100385.69
2023-09-20T06:41:43.662Z,100383.81
2023-09-20T06:44:13.857Z,100387.84
2023-09-20T06:46:43.882Z,100398.59
2023-09-20T06:49:11.461Z,100401.25
2023-09-20T06:51:38.868Z,100400.66
2023-09-20T06:54:06.651Z,100399.66
2023-09-20T06:56:34.253Z,100405.66
2023-09-20T06:59:02.381Z,100398.41
2023-09-20T07:01:30.327Z,100408.38
2023-09-20T07:03:57.699Z,100406.13
2023-09-20T07:06:26.141Z,100406.16
2023-09-20T07:08:53.460Z,100397.16
2023-09-20T07:11:20.790Z,100397.03
2023-09-20T07:13:48.464Z,100405.06
2023-09-20T07:16:15.945Z,100412.16
2023-09-20T07:18:45.500Z,100410.66
2023-09-20T07:21:15.465Z,100414.66
2023-09-20T07:23:42.943Z,100407.31
2023-09-20T07:26:13.314Z,100413.97
2023-09-20T07:28:44.206Z,100413.28
2023-09-20T07:31:11.596Z,100407.88
2023-09-20T07:33:39.916Z,100412.19
2023-09-20T07:36:07.470Z,100410.16
2023-09-20T07:38:37.933Z,100414.97
2023-09-20T07:41:19.408Z,100405.56
2023-09-20T07:43:48.606Z,100412.66
2023-09-20T07:46:17.009Z,100419.09
2023-09-20T07:48:53.983Z,100417.34
2023-09-20T07:51:21.757Z,100410.91
2023-09-20T07:53:51.176Z,100424.22
2023-09-20T07:56:18.878Z,100409.25
2023-09-20T07:58:46.329Z,100421.84
2023-09-20T08:01:14.219Z,100423.13
2023-09-20T08:03:52.137Z,100421.63
2023-09-20T08:06:20.828Z,100420.50
2023-09-20T08:08:50.990Z,100421.06
2023-09-20T08:11:21.244Z,100409.63
2023-09-20T08:13:53.495Z,100419.91
2023-09-20T08:16:21.700Z,100409.78
2023-09-20T08:19:06.125Z,100412.97
2023-09-20T08:21:34.438Z,100418.41
2023-09-20T08:24:24.047Z,100409.06
2023-09-20T08:27:10.132Z,100410.63
2023-09-20T08:29:58.336Z,100412.19
2023-09-20T08:32:46.624Z,100416.13
2023-09-20T08:35:32.718Z,100413.00
2023-09-20T08:38:18.971Z,100423.56
2023-09-20T08:41:05.055Z,100423.56
2023-09-20T08:43:53.704Z,100421.50
2023-09-20T08:46:39.905Z,100430.91
2023-09-20T08:49:26.172Z,100429.69
2023-09-20T08:52:21.540Z,100428.44
2023-09-20T08:55:08.280Z,100431.59
2023-09-20T08:57:54.434Z,100423.03
2023-09-20T09:00:32.232Z,100430.09
2023-09-20T09:03:01.317Z,100422.25
2023-09-20T09:05:30.162Z,100428.91
2023-09-20T09:07:58.820Z,100421.91
2023-09-20T09:10:26.860Z,100421.84
2023-09-20T09:12:54.468Z,100426.00
2023-09-20T09:15:22.435Z,100429.50
2023-09-20T09:17:49.971Z,100427.56
2023-09-20T09:20:22.509Z,100424.34
2023-09-20T09:22:53.677Z,100421.19
2023-09-20T09:25:32.866Z,100427.03
2023-09-20T09:28:00.918Z,100416.34
2023-09-20T09:30:28.414Z,100425.13
2023-09-20T09:32:56.173Z,100423.53
2023-09-20T09:35:39.956Z,100425.03
2023-09-20T09:38:13.723Z,100412.44
2023-09-20T09:40:58.192Z,100410.81
2023-09-20T09:43:32.354Z,100410.00
2023-09-20T09:46:09.228Z,100401.41
2023-09-20T09:48:40.617Z,100400.31
2023-09-20T09:51:08.452Z,100409.34
2023-09-20T09:53:38.843Z,100407.66
2023-09-20T09:56:06.684Z,100410.81
2023-09-20T09:58:34.626Z,100398.31
2023-09-20T10:01:06.752Z,100395.13
2023-09-20T10:03:35.602Z,100391.97
2023-09-20T10:06:09.878Z,100388.44
2023-09-20T10:08:39.998Z,100387.53
2023-09-20T10:11:08.375Z,100379.47
2023-09-20T10:13:37.144Z,100383.13
2023-09-20T10:16:12.605Z,100379.50
2023-09-20T10:18:55.646Z,100378.47
2023-09-20T10:21:27.645Z,100372.69
2023-09-20T10:23:59.139Z,100370.97
2023-09-20T10:26:27.836Z,100378.69
2023-09-20T10:29:01.972Z,100373.88
2023-09-20T10:31:32.856Z,100366.81
2023-09-20T10:34:03.799Z,100362.72
2023-09-20T10:36:31.961Z,100364.97
2023-09-20T10:39:18.418Z,100354.94
2023-09-20T10:41:46.820Z,100351.25
2023-09-20T10:44:36.944Z,100358.31
2023-09-20T10:47:15.249Z,100347.19
2023-09-20T10:49:49.502Z,100346.59
2023-09-20T10:52:57.658Z,100342.84
2023-09-20T10:55:25.098Z,100332.31
2023-09-20T10:57:52.748Z,100342.97
2023-09-20T11:00:26.631Z,100329.72
2023-09-20T11:02:54.284Z,100335.78
2023-09-20T11:05:24.917Z,100321.47
2023-09-20T11:07:54.459Z,100330.16
2023-09-20T11:10:22.229Z,100326.31
2023-09-20T11:12:51.406Z,100316.84
2023-09-20T11:15:19.480Z,100313.38
2023-09-20T11:17:48.395Z,100319.34
2023-09-20T11:20:15.997Z,100316.06
2023-09-20T11:22:43.360Z,100312.63
2023-09-20T11:25:10.727Z,100307.72
2023-09-20T11:27:39.425Z,100300.91
2023-09-20T11:30:09.285Z,100306.31
2023-09-20T11:32:41.290Z,100293.66
2023-09-20T11:35:09.160Z,100286.97
2023-09-20T11:37:36.950Z,100290.41
2023-09-20T11:40:06.467Z,100285.88
2023-09-20T11:42:35.656Z,100290.88
2023-09-20T11:45:35.989Z,100283.22
2023-09-20T11:47:57.430Z,100272.31
2023-09-20T11:50:26.444Z,100268.38
2023-09-20T11:52:54.899Z,100275.78
2023-09-20T11:55:23.528Z,100267.91
2023-09-20T11:57:54.115Z,100266.00
2023-09-20T12:00:25.624Z,100261.66
2023-09-20T12:02:54.948Z,100264.81
2023-09-20T12:05:25.376Z,100255.09
2023-09-20T12:08:00.650Z,100250.91
2023-09-20T12:10:31.295Z,100243.31
2023-09-20T12:12:59.011Z,100247.22
2023-09-20T12:15:26.576Z,100246.88
2023-09-20T12:17:57.911Z,100246.53
2023-09-20T12:20:26.289Z,100232.81
2023-09-20T12:22:54.495Z,100230.69
2023-09-20T12:25:22.070Z,100231.66
2023-09-20T12:27:49.603Z,100229.13
2023-09-20T12:30:17.077Z,100223.81
2023-09-20T12:32:44.649Z,100212.84
2023-09-20T12:35:12.524Z,100212.28
2023-09-20T12:37:40.914Z,100216.47
2023-09-20T12:40:09.677Z,100208.25
2023-09-20T12:42:38.544Z,100205.72
2023-09-20T12:45:09.934Z,100209.75
2023-09-20T12:47:41.827Z,100199.66
2023-09-20T12:50:14.393Z,100202.53
2023-09-20T12:52:44.658Z,100204.34
2023-09-20T12:55:13.000Z,100199.69
2023-09-20T12:57:42.422Z,100188.19
2023-09-20T13:00:15.363Z,100198.13
2023-09-20T13:02:47.055Z,100193.38
2023-09-20T13:05:14.760Z,100184.84
2023-09-20T13:07:42.134Z,100189.66
2023-09-20T13:10:14.631Z,100176.50
2023-09-20T13:12:45.026Z,100177.09
2023-09-20T13:15:14.064Z,100175.88
2023-09-20T13:17:45.184Z,100179.03
2023-09-20T13:20:14.642Z,100165.59
2023-09-20T13:22:46.675Z,100174.09
2023-09-20T13:25:20.302Z,100170.34
2023-09-20T13:27:48.750Z,100165.41
2023-09-20T13:30:16.767Z,100178.91
2023-09-20T13:32:44.257Z,100159.91
2023-09-20T13:35:17.087Z,100163.81
2023-09-20T13:37:47.434Z,100158.78
2023-09-20T13:40:24.265Z,100156.47
2023-09-20T13:42:51.563Z,100152.59
2023-09-20T13:45:23.533Z,100155.31
2023-09-20T13:47:52.642Z,100148.41
2023-09-20T13:50:20.237Z,100148.22
2023-09-20T13:52:47.625Z,100148.72
2023-09-20T13:55:15.332Z,100142.19
2023-09-20T13:57:42.899Z,100149.25
2023-09-20T14:00:16.562Z,100142.50
2023-09-20T14:02:44.902Z,100141.63
2023-09-20T14:05:15.990Z,100139.53
2023-09-20T14:07:46.031Z,100143.28
2023-09-20T14:10:14.239Z,100134.78
2023-09-20T14:12:43.441Z,100127.25
2023-09-20T14:15:16.080Z,100140.16
2023-09-20T14:17:47.120Z,100124.69
2023-09-20T14:20:19.862Z,100129.16
2023-09-20T14:22:47.419Z,100130.66
2023-09-20T14:25:14.898Z,100129.94
2023-09-20T14:27:42.754Z,100125.94
2023-09-20T14:30:11.761Z,100123.28
2023-09-20T14:32:39.688Z,100126.16
2023-09-20T14:35:08.926Z,100125.72
2023-09-20T14:37:36.516Z,100119.53
2023-09-20T14:40:04.678Z,100121.09
2023-09-20T14:42:31.976Z,100125.44
2023-09-20T14:44:59.341Z,100128.38
2023-09-20T14:47:28.727Z,100114.41
2023-09-20T14:49:56.316Z,100124.63
2023-09-20T14:52:24.060Z,100121.84
2023-09-20T14:54:54.111Z,100122.38
2023-09-20T14:57:22.175Z,100128.94
2023-09-20T14:59:49.699Z,100123.38
2023-09-20T15:02:17.616Z,100111.44
2023-09-20T15:04:45.113Z,100114.53
2023-09-20T15:07:12.789Z,100116.22
2023-09-20T15:09:42.053Z,100121.59
2023-09-20T15:12:09.589Z,100101.78
2023-09-20T15:14:38.617Z,100119.09
2023-09-20T15:17:08.023Z,100110.63
2023-09-20T15:19:35.338Z,100113.50
2023-09-20T15:22:02.646Z,100113.50
2023-09-20T15:24:29.941Z,100102.34
2023-09-20T15:26:57.688Z,100115.94
2023-09-20T15:29:25.101Z,100106.06
2023-09-20T15:31:52.506Z,100103.63
2023-09-20T15:34:19.875Z,100105.94
2023-09-20T15:36:47.231Z,100097.56
2023-09-20T15:39:16.707Z,100097.69
2023-09-20T15:41:46.340Z,100098.84
2023-09-20T15:44:13.826Z,100093.41
2023-09-20T15:46:43.360Z,100103.38
2023-09-20T15:49:10.768Z,100089.50
2023-09-20T15:51:38.056Z,100093.50
2023-09-20T15:54:05.530Z,100095.75
2023-09-20T15:56:32.889Z,100095.91
2023-09-20T15:59:02.258Z,100096.22
2023-09-20T16:01:31.853Z,100100.91
2023-09-20T16:04:04.415Z,100101.53
2023-09-20T16:06:31.819Z,100091.50
2023-09-20T16:09:00.168Z,100096.59
2023-09-20T16:11:27.719Z,100092.84
2023-09-20T16:13:55.067Z,100098.94
2023-09-20T16:16:22.748Z,100105.84
2023-09-20T16:18:51.154Z,100101.66
2023-09-20T16:21:18.522Z,100110.88
2023-09-20T16:23:47.376Z,100106.31
2023-09-20T16:26:14.841Z,100102.59
2023-09-20T16:28:42.134Z,100102.72
2023-09-20T16:31:10.511Z,100106.38
2023-09-20T16:33:38.717Z,100108.44
2023-09-20T16:36:06.398Z,100106.97
2023-09-20T16:38:35.178Z,100107.91
2023-09-20T16:41:02.508Z,100108.00
2023-09-20T16:43:29.875Z,100103.03
2023-09-20T16:45:57.424Z,100105.09
2023-09-20T16:48:24.867Z,100103.59
2023-09-20T16:50:52.364Z,100098.56
2023-09-20T16:53:19.685Z,100106.31
2023-09-20T16:55:47.037Z,100099.56
2023-09-20T16:58:15.506Z,100104.56
2023-09-20T17:00:46.922Z,100103.44
2023-09-20T17:03:14.668Z,100107.72
2023-09-20T17:05:42.828Z,100115.94
2023-09-20T17:08:10.920Z,100113.72
2023-09-20T17:10:38.210Z,100118.44
2023-09-20T17:13:06.118Z,100123.34
2023-09-20T17:15:33.473Z,100132.78
2023-09-20T17:18:01.324Z,100140.00
2023-09-20T17:20:29.552Z,100141.59
2023-09-20T17:22:57.124Z,100132.25
2023-09-20T17:25:24.419Z,100130.44
2023-09-20T17:27:51.794Z,100131.31
2023-09-20T17:30:20.590Z,100134.16
2023-09-20T17:32:51.251Z,100131.75
2023-09-20T17:35:18.928Z,100136.97
2023-09-20T17:37:46.337Z,100133.81
2023-09-20T17:40:17.091Z,100142.50
2023-09-20T17:42:44.906Z,100141.81
2023-09-20T17:45:14.286Z,100142.22
2023-09-20T17:47:45.247Z,100148.13
2023-09-20T17:50:14.144Z,100152.47
2023-09-20T17:52:42.401Z,100156.03
2023-09-20T17:55:09.970Z,100154.94
2023-09-20T17:57:38.586Z,100150.25
2023-09-20T18:00:14.992Z,100150.34
2023-09-20T18:02:42.689Z,100160.56
2023-09-20T18:05:10.898Z,100160.56
2023-09-20T18:07:38.720Z,100161.38
2023-09-20T18:10:06.597Z,100169.25
2023-09-20T18:12:35.820Z,100173.59
2023-09-20T18:15:05.305Z,100176.38
2023-09-20T18:17:34.732Z,100174.84
2023-09-20T18:20:04.768Z,100170.59
2023-09-20T18:22:32.205Z,100172.19
2023-09-20T18:25:00.381Z,100176.53
2023-09-20T18:27:30.373Z,100174.63
2023-09-20T18:29:58.135Z,100178.56
2023-09-20T18:32:25.772Z,100168.75
2023-09-20T18:34:53.181Z,100178.13
2023-09-20T18:37:24.855Z,100185.91
2023-09-20T18:39:52.237Z,100182.00
2023-09-20T18:42:20.851Z,100185.16
2023-09-20T18:44:48.366Z,100197.69
2023-09-20T18:47:16.177Z,100191.13
2023-09-20T18:49:44.791Z,100188.78
2023-09-20T18:52:14.740Z,100192.28
2023-09-20T18:54:42.093Z,100189.19
2023-09-20T18:57:11.826Z,100191.94
2023-09-20T18:59:43.536Z,100194.69
2023-09-20T19:02:12.319Z,100192.34
2023-09-20T19:04:42.314Z,100192.38
2023-09-20T19:07:12.904Z,100195.53
2023-09-20T19:09:40.646Z,100191.63
2023-09-20T19:12:09.042Z,100190.88
2023-09-20T19:14:36.625Z,100199.44
2023-09-20T19:17:04.022Z,100195.16
2023-09-20T19:19:31.299Z,100187.72
2023-09-20T19:21:58.812Z,100190.47
2023-09-20T19:24:31.654Z,100192.41
2023-09-20T19:26:59.377Z,100190.06
2023-09-20T19:29:28.567Z,100182.22
2023-09-20T19:31:56.078Z,100179.88
2023-09-20T19:34:23.406Z,100183.00
2023-09-20T19:36:50.808Z,100190.81
2023-09-20T19:39:18.134Z,100182.19
2023-09-20T19:41:45.470Z,100186.53
2023-09-20T19:44:12.833Z,100185.31
2023-09-20T19:46:40.226Z,100182.56
2023-09-20T19:49:07.880Z,100168.91
2023-09-20T19:51:36.661Z,100180.59
2023-09-20T19:54:10.211Z,100178.28
2023-09-20T19:56:38.522Z,100177.50
2023-09-20T19:59:05.980Z,100177.47
2023-09-20T20:01:35.122Z,100180.97
2023-09-20T20:04:03.402Z,100174.72
2023-09-20T20:06:31.188Z,100183.72
2023-09-20T20:08:59.077Z,100173.56
2023-09-20T20:11:26.415Z,100177.44
2023-09-20T20:13:54.088Z,100179.03
2023-09-20T20:16:21.679Z,100177.44
2023-09-20T20:18:50.392Z,100179.31
2023-09-20T20:21:18.953Z,100184.38
2023-09-20T20:23:46.769Z,100185.53
2023-09-20T20:26:14.434Z,100178.13
2023-09-20T20:28:42.287Z,100180.75
2023-09-20T20:31:10.521Z,100188.19
2023-09-20T20:33:38.094Z,100190.84
2023-09-20T20:36:07.074Z,100188.84
2023-09-20T20:38:34.789Z,100189.59
2023-09-20T20:41:02.180Z,100185.75
2023-09-20T20:43:31.178Z,100186.84
2023-09-20T20:45:59.348Z,100177.09
2023-09-20T20:48:26.987Z,100184.06
2023-09-20T20:50:54.601Z,100186.78
2023-09-20T20:53:21.872Z,100187.97
2023-09-20T20:55:53.483Z,100183.66
2023-09-20T20:58:24.847Z,100180.19
2023-09-20T21:00:55.716Z,100187.22
2023-09-20T21:03:23.433Z,100179.38
2023-09-20T21:05:51.049Z,100181.69
2023-09-20T21:08:18.853Z,100177.78
2023-09-20T21:10:47.358Z,100173.91
2023-09-20T21:13:15.283Z,100180.94
2023-09-20T21:15:46.459Z,100174.63
2023-09-20T21:18:17.388Z,100164.44
2023-09-20T21:20:52.383Z,100174.59
2023-09-20T21:23:20.029Z,100167.97
2023-09-20T21:25:49.962Z,100175.00
2023-09-20T21:28:17.238Z,100178.44
2023-09-20T21:30:45.032Z,100170.16
2023-09-20T21:33:12.976Z,100169.75
2023-09-20T21:35:42.157Z,100165.03
2023-09-20T21:38:09.739Z,100169.72
2023-09-20T21:40:39.373Z,100169.56
2023-09-20T21:43:09.085Z,100174.22
2023-09-20T21:45:36.847Z,100175.00
2023-09-20T21:48:04.842Z,100180.88
2023-09-20T21:50:32.446Z,100175.75
2023-09-20T21:53:00.000Z,100185.81
2023-09-20T21:55:29.245Z,100172.97
2023-09-20T21:57:59.593Z,100174.84
2023-09-20T22:00:26.972Z,100168.59
2023-09-20T22:03:00.330Z,100174.03
2023-09-20T22:05:28.489Z,100168.09
2023-09-20T22:07:58.692Z,100168.38
2023-09-20T22:10:26.957Z,100175.25
2023-09-20T22:12:55.341Z,100171.78
2023-09-20T22:15:24.813Z,100170.66
2023-09-20T22:17:52.677Z,100172.16
2023-09-20T22:20:25.456Z,100168.25
2023-09-20T22:23:01.805Z,100163.53
2023-09-20T22:25:32.329Z,100172.84
2023-09-20T22:27:59.646Z,100163.06
2023-09-20T22:30:27.677Z,100173.09
2023-09-20T22:32:55.126Z,100171.94
2023-09-20T22:35:22.691Z,100175.84
2023-09-20T22:37:50.956Z,100177.31
2023-09-20T22:40:19.009Z,100172.59
2023-09-20T22:42:48.498Z,100169.22
2023-09-20T22:45:24.413Z,100171.84
2023-09-20T22:47:52.878Z,100177.66
2023-09-20T22:50:24.407Z,100167.50
2023-09-20T22:52:55.522Z,100171.78
2023-09-20T22:55:25.260Z,100169.47
2023-09-20T22:57:52.522Z,100181.94
2023-09-20T23:00:30.796Z,100177.16
2023-09-20T23:02:58.347Z,100177.56
2023-09-20T23:05:26.560Z,100179.53
2023-09-20T23:07:55.119Z,100177.97
2023-09-20T23:10:25.598Z,100163.97
2023-09-20T23:12:58.661Z,100164.59
2023-09-20T23:15:31.948Z,100170.78
2023-09-20T23:18:02.951Z,100156.25
2023-09-20T23:20:34.608Z,100153.84
2023-09-20T23:23:03.181Z,100152.63
2023-09-20T23:25:40.492Z,100161.84
2023-09-20T23:28:11.117Z,100147.03
2023-09-20T23:30:41.867Z,100154.88
2023-09-20T23:33:14.422Z,100161.09
2023-09-20T23:35:56.037Z,100150.84
2023-09-20T23:38:26.004Z,100154.00
2023-09-20T23:40:53.505Z,100158.59
2023-09-20T23:43:22.790Z,100154.75
2023-09-20T23:45:50.182Z,100161.28
2023-09-20T23:48:18.733Z,100155.75
2023-09-20T23:50:46.868Z,100161.19
2023-09-20T23:53:14.524Z,100149.97
2023-09-20T23:55:44.671Z,100154.63
2023-09-20T23:58:13.308Z,100151.59
